sensor_id;sensor_type;location;lat;lon;timestamp;temperature;humidity
15048;DHT22;7621;52.350;13.308;2023-07-08T05:48:07;27.50;56.00
15048;DHT22;7621;52.350;13.308;2023-07-08T05:50:33;28.00;55.00
15048;DHT22;7621;52.350;13.308;2023-07-08T05:52:58;28.30;53.10
15048;DHT22;7621;52.350;13.308;2023-07-08T05:55:24;28.60;53.10
15048;DHT22;7621;52.350;13.308;2023-07-08T05:57:49;29.00;52.10
15048;DHT22;7621;52.350;13.308;2023-07-08T06:00:15;29.50;51.20
15048;DHT22;7621;52.350;13.308;2023-07-08T06:02:40;29.80;50.00
15048;DHT22;7621;52.350;13.308;2023-07-08T06:05:06;30.10;49.60
15048;DHT22;7621;52.350;13.308;2023-07-08T06:07:32;30.30;49.10
15048;DHT22;7621;52.350;13.308;2023-07-08T06:09:58;30.70;48.30
15048;DHT22;7621;52.350;13.308;2023-07-08T06:12:24;31.00;48.10
15048;DHT22;7621;52.350;13.308;2023-07-08T06:14:50;31.50;47.00
15048;DHT22;7621;52.350;13.308;2023-07-08T06:17:16;31.90;45.90
15048;DHT22;7621;52.350;13.308;2023-07-08T06:19:42;32.40;45.60
15048;DHT22;7621;52.350;13.308;2023-07-08T06:22:08;32.90;45.30
15048;DHT22;7621;52.350;13.308;2023-07-08T06:24:33;33.40;44.20
15048;DHT22;7621;52.350;13.308;2023-07-08T06:26:59;34.00;43.20
15048;DHT22;7621;52.350;13.308;2023-07-08T06:29:25;34.50;42.80
15048;DHT22;7621;52.350;13.308;2023-07-08T06:31:50;35.00;40.80
15048;DHT22;7621;52.350;13.308;2023-07-08T06:34:17;35.60;39.80
15048;DHT22;7621;52.350;13.308;2023-07-08T06:36:42;36.10;39.50
15048;DHT22;7621;52.350;13.308;2023-07-08T06:39:08;36.80;38.40
15048;DHT22;7621;52.350;13.308;2023-07-08T06:41:37;37.50;38.00
15048;DHT22;7621;52.350;13.308;2023-07-08T06:44:02;38.10;37.30
15048;DHT22;7621;52.350;13.308;2023-07-08T06:46:28;38.90;36.50
15048;DHT22;7621;52.350;13.308;2023-07-08T06:48:54;39.70;36.10
15048;DHT22;7621;52.350;13.308;2023-07-08T06:51:19;40.50;35.30
15048;DHT22;7621;52.350;13.308;2023-07-08T06:53:45;41.30;34.40
15048;DHT22;7621;52.350;13.308;2023-07-08T06:56:10;42.20;32.60
15048;DHT22;7621;52.350;13.308;2023-07-08T06:58:36;43.00;31.10
15048;DHT22;7621;52.350;13.308;2023-07-08T07:01:01;43.70;29.90
15048;DHT22;7621;52.350;13.308;2023-07-08T07:03:27;44.30;29.70
15048;DHT22;7621;52.350;13.308;2023-07-08T07:05:53;44.90;29.30
15048;DHT22;7621;52.350;13.308;2023-07-08T07:08:18;45.60;28.40
15048;DHT22;7621;52.350;13.308;2023-07-08T07:10:44;46.00;28.40
15048;DHT22;7621;52.350;13.308;2023-07-08T07:13:09;46.60;27.70
15048;DHT22;7621;52.350;13.308;2023-07-08T07:15:35;47.00;27.30
15048;DHT22;7621;52.350;13.308;2023-07-08T07:18:01;47.40;27.00
15048;DHT22;7621;52.350;13.308;2023-07-08T07:20:27;47.90;26.70
15048;DHT22;7621;52.350;13.308;2023-07-08T07:22:53;48.40;25.80
15048;DHT22;7621;52.350;13.308;2023-07-08T07:25:19;48.40;25.90
15048;DHT22;7621;52.350;13.308;2023-07-08T07:27:44;48.50;25.30
15048;DHT22;7621;52.350;13.308;2023-07-08T07:30:10;48.60;25.40
15048;DHT22;7621;52.350;13.308;2023-07-08T07:32:41;48.70;25.40
15048;DHT22;7621;52.350;13.308;2023-07-08T07:35:07;48.80;25.80
15048;DHT22;7621;52.350;13.308;2023-07-08T07:37:33;49.20;26.10
15048;DHT22;7621;52.350;13.308;2023-07-08T07:39:59;49.80;25.80
15048;DHT22;7621;52.350;13.308;2023-07-08T07:42:27;50.30;24.80
